createdAt,value
2019-05-21T00:01:29.782Z,79.61
2019-05-21T00:06:36.004Z,79.75
2019-05-21T00:11:41.243Z,80.27
2019-05-21T00:16:46.422Z,80.35
2019-05-21T00:21:51.669Z,80.41
2019-05-21T00:26:56.954Z,80.10
2019-05-21T00:32:38.004Z,79.83
2019-05-21T00:38:18.954Z,79.50
2019-05-21T00:43:46.422Z,79.57
2019-05-21T00:48:51.663Z,79.86
2019-05-21T00:53:57.196Z,80.07
2019-05-21T00:59:02.432Z,80.12
2019-05-21T01:04:07.694Z,80.21
2019-05-21T01:09:12.939Z,80.28
2019-05-21T01:14:18.183Z,80.36
2019-05-21T01:19:23.419Z,80.53
2019-05-21T01:24:28.681Z,80.62
2019-05-21T01:29:33.902Z,80.48
2019-05-21T01:34:39.154Z,80.54
2019-05-21T01:39:44.401Z,80.56
2019-05-21T01:44:49.632Z,80.76
2019-05-21T01:49:55.146Z,80.93
2019-05-21T01:55:00.744Z,81.05
2019-05-21T02:00:07.247Z,81.08
2019-05-21T02:05:12.672Z,81.21
2019-05-21T02:10:18.397Z,81.28
2019-05-21T02:15:23.639Z,81.33
2019-05-21T02:20:28.896Z,81.43
2019-05-21T02:25:34.177Z,81.42
2019-05-21T02:30:39.430Z,81.41
2019-05-21T02:35:54.157Z,81.41
2019-05-21T02:40:51.657Z,81.44
2019-05-21T02:45:56.901Z,81.39
2019-05-21T02:51:02.184Z,81.41
2019-05-21T02:56:07.431Z,81.41
2019-05-21T03:01:31.546Z,81.58
2019-05-21T03:06:37.350Z,81.55
2019-05-21T03:11:42.737Z,81.65
2019-05-21T03:16:48.485Z,81.73
2019-05-21T03:21:53.826Z,81.75
2019-05-21T03:26:59.171Z,81.80
2019-05-21T03:32:05.005Z,81.70
2019-05-21T03:37:11.197Z,81.67
2019-05-21T03:42:16.419Z,81.65
2019-05-21T03:47:21.894Z,81.62
2019-05-21T03:52:27.017Z,81.56
2019-05-21T03:57:32.246Z,81.55
2019-05-21T04:02:37.326Z,81.53
2019-05-21T04:07:42.671Z,81.55
2019-05-21T04:13:06.472Z,81.48
2019-05-21T04:18:16.805Z,81.55
2019-05-21T04:23:21.943Z,81.50
2019-05-21T04:28:27.113Z,81.38
2019-05-21T04:33:32.338Z,81.33
2019-05-21T04:38:37.552Z,81.29
2019-05-21T04:43:42.787Z,81.21
2019-05-21T04:48:48.105Z,81.24
2019-05-21T04:53:53.393Z,81.10
2019-05-21T04:58:58.486Z,80.76
2019-05-21T05:04:03.676Z,79.82
2019-05-21T05:09:08.894Z,79.47
2019-05-21T05:14:14.306Z,79.05
2019-05-21T05:19:20.568Z,78.83
2019-05-21T05:24:25.700Z,78.74
2019-05-21T05:29:31.156Z,78.89
2019-05-21T05:34:36.621Z,78.82
2019-05-21T05:39:42.070Z,79.21
2019-05-21T05:44:47.223Z,78.87
2019-05-21T05:49:54.120Z,78.39
2019-05-21T05:54:59.274Z,79.05
2019-05-21T06:00:05.311Z,79.50
2019-05-21T06:05:11.536Z,79.43
2019-05-21T06:10:16.818Z,79.00
2019-05-21T06:15:22.136Z,78.98
2019-05-21T06:20:27.459Z,78.22
2019-05-21T06:25:32.735Z,78.39
2019-05-21T06:30:38.258Z,77.41
2019-05-21T06:35:43.404Z,77.29
2019-05-21T06:40:48.674Z,77.31
2019-05-21T06:45:54.453Z,76.63
2019-05-21T06:51:01.415Z,77.11
2019-05-21T06:56:07.793Z,76.60
2019-05-21T07:01:13.144Z,77.23
2019-05-21T07:06:18.373Z,77.15
2019-05-21T07:11:23.592Z,76.41
2019-05-21T07:16:29.776Z,75.54
2019-05-21T07:21:35.968Z,76.13
2019-05-21T07:26:42.311Z,76.79
2019-05-21T07:31:47.503Z,77.61
2019-05-21T07:36:52.728Z,77.90
2019-05-21T07:41:59.059Z,77.82
2019-05-21T07:47:04.397Z,77.44
2019-05-21T07:52:09.633Z,77.78
2019-05-21T07:57:15.603Z,76.74
2019-05-21T08:02:20.826Z,75.97
2019-05-21T08:07:26.280Z,77.10
2019-05-21T08:12:39.089Z,76.64
2019-05-21T08:17:38.348Z,76.93
2019-05-21T08:22:43.924Z,76.47
2019-05-21T08:27:49.075Z,76.80
2019-05-21T08:32:54.360Z,76.09
2019-05-21T08:38:00.230Z,75.63
2019-05-21T08:43:05.893Z,75.46
2019-05-21T08:48:11.175Z,75.20
2019-05-21T08:53:16.380Z,74.31
2019-05-21T08:58:21.602Z,75.03
2019-05-21T09:03:27.481Z,74.46
2019-05-21T09:08:32.699Z,71.27
2019-05-21T09:13:37.851Z,71.86
2019-05-21T09:18:43.026Z,71.60
2019-05-21T09:23:48.281Z,70.82
2019-05-21T09:28:53.815Z,71.95
2019-05-21T09:33:58.872Z,71.06
2019-05-21T09:39:05.268Z,70.27
2019-05-21T09:44:12.264Z,69.15
2019-05-21T09:49:17.499Z,68.30
2019-05-21T09:54:22.722Z,67.63
2019-05-21T10:00:02.943Z,68.53
2019-05-21T10:05:09.225Z,68.00
2019-05-21T10:10:14.881Z,67.08
2019-05-21T10:15:20.486Z,66.71
2019-05-21T10:20:25.716Z,65.91
2019-05-21T10:25:30.970Z,66.37
2019-05-21T10:30:36.203Z,64.33
2019-05-21T10:35:42.440Z,65.96
2019-05-21T10:40:47.777Z,64.35
2019-05-21T10:45:53.336Z,63.96
2019-05-21T10:50:58.552Z,63.03
2019-05-21T10:56:03.823Z,62.34
2019-05-21T11:01:16.973Z,60.08
2019-05-21T11:06:22.226Z,60.44
2019-05-21T11:11:28.825Z,60.31
2019-05-21T11:16:34.064Z,58.27
2019-05-21T11:21:39.305Z,57.30
2019-05-21T11:26:44.560Z,59.45
2019-05-21T11:31:57.177Z,61.25
2019-05-21T11:36:57.061Z,60.70
2019-05-21T11:42:02.681Z,59.49
2019-05-21T11:47:07.937Z,59.42
2019-05-21T11:52:13.548Z,57.22
2019-05-21T11:57:18.777Z,59.70
2019-05-21T12:02:24.268Z,58.62
2019-05-21T12:07:29.421Z,58.21
2019-05-21T12:12:34.984Z,56.81
2019-05-21T12:22:53.098Z,56.27
2019-05-21T12:27:58.647Z,56.95
2019-05-21T12:33:03.872Z,57.69
2019-05-21T12:38:09.085Z,55.99
2019-05-21T12:43:14.628Z,55.22
2019-05-21T12:48:19.779Z,55.81
2019-05-21T12:53:24.934Z,57.03
2019-05-21T12:58:30.084Z,55.97
2019-05-21T13:03:35.225Z,55.74
2019-05-21T13:08:40.789Z,55.60
2019-05-21T13:13:46.014Z,55.46
2019-05-21T13:18:51.460Z,55.92
2019-05-21T13:23:56.744Z,56.48
2019-05-21T13:29:02.002Z,56.18
2019-05-21T13:34:07.425Z,55.33
2019-05-21T13:39:13.031Z,55.91
2019-05-21T13:44:18.254Z,54.29
2019-05-21T13:49:23.490Z,53.36
2019-05-21T13:54:28.715Z,53.71
2019-05-21T13:59:34.770Z,51.96
2019-05-21T14:04:39.989Z,53.83
2019-05-21T14:09:45.799Z,54.62
2019-05-21T14:14:51.231Z,54.38
2019-05-21T14:19:56.488Z,55.34
2019-05-21T14:25:02.133Z,55.09
2019-05-21T14:30:09.950Z,54.67
2019-05-21T14:35:15.282Z,54.55
2019-05-21T14:40:31.552Z,55.45
2019-05-21T14:45:33.461Z,54.35
2019-05-21T14:50:35.781Z,54.61
2019-05-21T14:55:41.003Z,54.54
2019-05-21T15:00:46.582Z,55.09
2019-05-21T15:05:51.833Z,54.72
2019-05-21T15:10:57.079Z,56.16
2019-05-21T15:16:02.316Z,56.06
2019-05-21T15:21:12.707Z,55.64
2019-05-21T15:26:18.272Z,55.89
2019-05-21T15:31:24.643Z,55.87
2019-05-21T15:36:29.914Z,56.23
2019-05-21T15:41:35.408Z,54.94
2019-05-21T15:46:48.143Z,54.05
2019-05-21T15:51:47.657Z,55.69
2019-05-21T15:56:53.271Z,61.31
2019-05-21T16:01:58.888Z,64.48
2019-05-21T16:07:05.173Z,66.31
2019-05-21T16:12:10.390Z,66.84
2019-05-21T16:17:15.547Z,67.48
2019-05-21T16:22:21.036Z,68.63
2019-05-21T16:27:26.223Z,69.17
2019-05-21T16:32:32.132Z,69.34
2019-05-21T16:37:37.356Z,70.20
2019-05-21T16:42:42.603Z,70.73
2019-05-21T16:47:48.230Z,71.00
2019-05-21T16:52:53.701Z,71.01
2019-05-21T16:57:58.955Z,71.28
2019-05-21T17:03:04.205Z,71.51
2019-05-21T17:08:09.446Z,71.61
2019-05-21T17:13:14.935Z,71.63
2019-05-21T17:18:21.758Z,72.93
2019-05-21T17:23:26.984Z,74.32
2019-05-21T17:28:32.522Z,75.21
2019-05-21T17:33:38.134Z,75.72
2019-05-21T17:38:43.379Z,76.63
2019-05-21T17:43:48.935Z,77.63
2019-05-21T17:48:54.151Z,78.09
2019-05-21T17:54:00.918Z,78.36
2019-05-21T17:59:06.115Z,78.50
2019-05-21T18:04:13.777Z,78.29
2019-05-21T18:09:20.517Z,78.24
2019-05-21T18:14:26.096Z,78.52
2019-05-21T18:19:31.468Z,78.73
2019-05-21T18:24:37.325Z,79.17
2019-05-21T18:29:43.420Z,78.66
2019-05-21T18:34:48.765Z,79.28
2019-05-21T18:39:54.297Z,79.17
2019-05-21T18:44:59.437Z,78.78
2019-05-21T18:50:05.043Z,78.51
2019-05-21T18:55:10.769Z,78.25
2019-05-21T19:00:16.460Z,78.60
2019-05-21T19:05:21.698Z,78.16
2019-05-21T19:10:27.065Z,78.14
2019-05-21T19:15:32.263Z,78.14
2019-05-21T19:20:37.783Z,78.39
2019-05-21T19:25:43.026Z,78.05
2019-05-21T19:30:48.443Z,77.97
2019-05-21T19:35:53.526Z,78.41
2019-05-21T19:40:58.681Z,78.47
2019-05-21T19:46:03.833Z,77.91
2019-05-21T19:51:09.906Z,77.81
2019-05-21T19:56:15.972Z,77.47
2019-05-21T20:01:21.665Z,77.08
2019-05-21T20:06:27.184Z,77.33
2019-05-21T20:11:32.715Z,77.25
2019-05-21T20:16:39.496Z,77.17
2019-05-21T20:21:45.822Z,76.73
2019-05-21T20:26:51.563Z,77.00
2019-05-21T20:31:56.699Z,76.72
2019-05-21T20:37:03.362Z,77.05
2019-05-21T20:42:10.171Z,77.08
2019-05-21T20:47:16.277Z,76.86
2019-05-21T20:52:22.266Z,77.02
2019-05-21T20:57:28.799Z,77.23
2019-05-21T21:02:35.321Z,77.20
2019-05-21T21:07:41.268Z,77.27
2019-05-21T21:12:47.083Z,76.64
2019-05-21T21:17:52.627Z,76.90
2019-05-21T21:22:57.717Z,77.19
2019-05-21T21:28:03.079Z,77.00
2019-05-21T21:33:08.505Z,76.59
2019-05-21T21:38:17.370Z,76.83
2019-05-21T21:43:23.176Z,76.80
2019-05-21T21:48:29.908Z,76.67
2019-05-21T21:53:36.380Z,76.90
2019-05-21T21:58:41.741Z,76.31
2019-05-21T22:03:47.060Z,76.17
2019-05-21T22:08:52.859Z,76.23
2019-05-21T22:13:58.314Z,76.28
2019-05-21T22:19:04.175Z,76.32
2019-05-21T22:24:09.963Z,76.02
2019-05-21T22:29:15.792Z,75.85
2019-05-21T22:34:22.060Z,75.94
2019-05-21T22:39:30.586Z,76.15
2019-05-21T22:44:35.792Z,76.32
2019-05-21T22:49:41.593Z,75.89
2019-05-21T22:54:47.055Z,76.19
2019-05-21T22:59:52.212Z,76.23
2019-05-21T23:04:57.511Z,76.42
2019-05-21T23:10:04.756Z,76.46
2019-05-21T23:15:24.548Z,76.34
2019-05-21T23:20:21.416Z,76.30
2019-05-21T23:25:28.499Z,76.34
2019-05-21T23:30:34.475Z,76.10
2019-05-21T23:35:41.283Z,76.17
2019-05-21T23:40:48.685Z,76.39
2019-05-21T23:45:54.375Z,76.13
2019-05-21T23:50:59.871Z,75.87
2019-05-21T23:56:05.132Z,75.87
